Time;durP1;ratioP1;P1;durP2;ratioP2;P2;SDS_P1;SDS_P2;PMS_P1;PMS_P2;Temp;Humidity;BMP_temperature;BMP_pressure;BME280_temperature;BME280_humidity;BME280_pressure;Samples;Min_cycle;Max_cycle;Signal;HPM_P1;HPM_P2
2020/12/16 00:00:28;;;;;;;31.35;16.02;;;0.70;99.90;;;;;;5073652;28;20049;-48
2020/12/16 00:02:55;;;;;;;20.60;13.32;;;0.70;99.90;;;;;;5069900;28;20056;-47
2020/12/16 00:05:21;;;;;;;33.08;18.48;;;0.70;99.90;;;;;;5056088;28;20075;-48
2020/12/16 00:07:48;;;;;;;52.35;26.67;;;0.80;99.90;;;;;;5072526;28;20051;-48
2020/12/16 00:10:15;;;;;;;44.50;23.30;;;0.60;99.90;;;;;;5073010;28;20063;-48
2020/12/16 00:12:42;;;;;;;38.25;23.40;;;0.40;99.90;;;;;;5065157;28;20052;-48
2020/12/16 00:15:10;;;;;;;38.15;19.50;;;0.30;99.90;;;;;;5061861;28;20424;-48
2020/12/16 00:17:38;;;;;;;26.00;17.95;;;0.20;99.90;;;;;;5068147;28;20055;-48
2020/12/16 00:20:06;;;;;;;28.02;16.45;;;0.20;99.90;;;;;;5070273;28;20075;-48
2020/12/16 00:22:37;;;;;;;26.95;17.48;;;0.20;99.90;;;;;;5073420;28;20048;-48
2020/12/16 00:25:06;;;;;;;26.48;13.85;;;0.20;99.90;;;;;;5071885;28;20048;-48
2020/12/16 00:27:33;;;;;;;23.73;13.52;;;0.30;99.90;;;;;;5066817;28;20052;-48
2020/12/16 00:30:00;;;;;;;33.63;17.10;;;0.30;99.90;;;;;;5071736;28;20040;-47
2020/12/16 00:32:27;;;;;;;36.85;18.15;;;0.30;99.90;;;;;;5072479;28;20064;-48
2020/12/16 00:34:53;;;;;;;42.47;23.15;;;0.30;99.90;;;;;;5058976;28;20045;-48
2020/12/16 00:37:20;;;;;;;41.35;20.92;;;0.30;99.90;;;;;;5066686;28;20043;-48
2020/12/16 00:39:47;;;;;;;38.53;21.08;;;0.30;99.90;;;;;;5061709;28;20052;-48
2020/12/16 00:42:14;;;;;;;33.72;18.30;;;0.20;99.90;;;;;;5069798;28;20045;-48
2020/12/16 00:44:40;;;;;;;33.25;17.33;;;0.10;99.90;;;;;;5071610;28;20059;-49
2020/12/16 00:47:06;;;;;;;37.13;19.38;;;0.10;99.90;;;;;;5072498;28;20059;-48
2020/12/16 00:49:33;;;;;;;43.10;23.05;;;0.10;99.90;;;;;;5073343;28;20402;-48
2020/12/16 00:51:59;;;;;;;39.80;21.65;;;0.20;99.90;;;;;;5073208;28;20066;-48
2020/12/16 00:54:26;;;;;;;32.00;15.65;;;0.30;99.90;;;;;;5066672;28;20496;-48
2020/12/16 00:56:52;;;;;;;25.02;14.98;;;0.30;99.90;;;;;;5056437;28;20128;-48
2020/12/16 00:59:19;;;;;;;23.70;14.20;;;0.30;99.90;;;;;;5070170;28;20063;-48
2020/12/16 01:01:46;;;;;;;29.30;14.48;;;0.30;99.90;;;;;;5070191;28;20053;-48
2020/12/16 01:04:13;;;;;;;18.08;10.35;;;0.30;99.90;;;;;;5072128;28;20052;-48
2020/12/16 01:06:39;;;;;;;28.38;15.55;;;0.30;99.90;;;;;;5063560;28;20484;-48
2020/12/16 01:09:06;;;;;;;52.20;21.40;;;0.40;99.90;;;;;;5061939;28;20072;-48
2020/12/16 01:11:37;;;;;;;46.83;21.20;;;0.30;99.90;;;;;;5071273;28;20056;-48
2020/12/16 01:14:08;;;;;;;37.47;19.40;;;0.30;99.90;;;;;;5071943;28;20462;-47
2020/12/16 01:16:36;;;;;;;36.67;17.23;;;0.30;99.90;;;;;;5070116;28;20187;-48
2020/12/16 01:19:09;;;;;;;40.28;19.83;;;0.30;99.90;;;;;;5071103;28;20498;-48
2020/12/16 01:21:36;;;;;;;;;;;0.20;99.90;;;;;;5071349;28;20470;-48
2020/12/16 01:24:05;;;;;;;26.38;14.40;;;0.00;99.90;;;;;;5070577;28;19920;-48
2020/12/16 01:26:46;;;;;;;24.38;14.27;;;0.00;99.90;;;;;;5071237;28;20055;-47
2020/12/16 01:29:14;;;;;;;35.13;15.95;;;-0.10;99.90;;;;;;5070007;28;20067;-47
2020/12/16 01:31:46;;;;;;;28.95;17.52;;;-0.20;99.90;;;;;;5071819;28;20056;-48
2020/12/16 01:34:13;;;;;;;30.70;16.00;;;-0.20;99.90;;;;;;5069897;28;20401;-47
2020/12/16 01:36:41;;;;;;;28.17;16.48;;;-0.30;99.90;;;;;;5069039;28;20053;-49
2020/12/16 01:39:10;;;;;;;25.67;15.77;;;-0.40;99.90;;;;;;5068891;28;20053;-48
2020/12/16 01:41:41;;;;;;;33.47;16.92;;;-0.30;99.90;;;;;;5068339;28;20056;-49
2020/12/16 01:44:16;;;;;;;25.15;13.98;;;-0.30;99.90;;;;;;5072317;28;20056;-48
2020/12/16 01:46:51;;;;;;;26.95;13.55;;;-0.20;99.90;;;;;;5068849;28;20055;-49
2020/12/16 01:49:19;;;;;;;28.88;13.05;;;0.00;99.90;;;;;;5070473;28;20480;-48
2020/12/16 01:51:50;;;;;;;20.73;8.68;;;0.10;99.90;;;;;;5071507;28;20052;-48
2020/12/16 01:54:18;;;;;;;15.93;9.85;;;0.20;99.90;;;;;;5066486;28;20049;-48
2020/12/16 01:56:48;;;;;;;8.55;6.28;;;0.20;99.90;;;;;;5071762;28;20056;-47
2020/12/16 01:59:16;;;;;;;6.78;4.53;;;0.30;99.90;;;;;;5070510;28;20055;-48
2020/12/16 02:01:47;;;;;;;9.35;4.90;;;0.30;99.90;;;;;;5071902;28;20067;-47
2020/12/16 02:04:18;;;;;;;7.18;3.80;;;0.40;99.90;;;;;;5064384;28;20053;-48
2020/12/16 02:06:45;;;;;;;6.80;3.67;;;0.40;99.90;;;;;;5059199;28;20458;-47
2020/12/16 02:09:12;;;;;;;5.85;1.95;;;0.50;99.90;;;;;;5071691;28;20055;-47
2020/12/16 02:11:40;;;;;;;12.45;5.80;;;0.60;99.90;;;;;;5070029;28;20045;-48
2020/12/16 02:14:08;;;;;;;11.40;6.38;;;0.70;99.90;;;;;;5071181;28;20052;-48
2020/12/16 02:16:37;;;;;;;17.80;10.40;;;0.70;99.90;;;;;;5068756;28;20056;-48
2020/12/16 02:19:04;;;;;;;22.95;13.00;;;0.70;99.90;;;;;;5070525;28;20049;-48
2020/12/16 02:21:33;;;;;;;25.27;15.18;;;0.60;99.90;;;;;;5065280;28;20102;-49
2020/12/16 02:24:07;;;;;;;26.23;12.88;;;0.60;99.90;;;;;;5059992;28;20056;-49
2020/12/16 02:26:36;;;;;;;23.20;11.98;;;0.60;99.90;;;;;;5057251;28;20053;-48
2020/12/16 02:29:04;;;;;;;21.00;12.50;;;0.60;99.90;;;;;;5065698;28;20056;-48
2020/12/16 02:31:34;;;;;;;23.42;12.88;;;0.60;99.90;;;;;;5064695;28;20106;-48
2020/12/16 02:34:00;;;;;;;18.80;12.02;;;0.60;99.90;;;;;;5069696;28;20053;-48
2020/12/16 02:36:27;;;;;;;22.77;12.38;;;0.60;99.90;;;;;;5069190;28;20045;-48
2020/12/16 02:38:54;;;;;;;16.95;10.57;;;0.50;99.90;;;;;;5071915;28;20054;-49
2020/12/16 02:41:22;;;;;;;23.33;12.65;;;0.40;99.90;;;;;;5074253;28;20084;-48
2020/12/16 02:43:49;;;;;;;24.80;12.38;;;0.30;99.90;;;;;;5055379;28;20048;-48
2020/12/16 02:46:16;;;;;;;20.70;12.77;;;0.30;99.90;;;;;;5071446;28;20040;-49
2020/12/16 02:48:43;;;;;;;23.52;13.10;;;0.30;99.90;;;;;;5057959;28;20059;-48
2020/12/16 02:51:09;;;;;;;20.10;13.02;;;0.20;99.90;;;;;;5071032;28;20055;-49
2020/12/16 02:53:36;;;;;;;23.42;12.63;;;0.10;99.90;;;;;;5085888;28;20044;-48
2020/12/16 02:56:03;;;;;;;21.65;11.32;;;0.00;99.90;;;;;;5074495;28;20044;-48
2020/12/16 02:58:30;;;;;;;20.35;10.93;;;0.00;99.90;;;;;;5064736;28;20048;-49
2020/12/16 03:00:58;;;;;;;14.85;8.80;;;0.20;99.90;;;;;;5061815;28;20079;-49
2020/12/16 03:03:24;;;;;;;18.05;8.15;;;0.20;99.90;;;;;;5067565;28;20053;-50
2020/12/16 03:05:51;;;;;;;12.68;7.35;;;0.30;99.90;;;;;;5072611;28;20048;-49
2020/12/16 03:08:19;;;;;;;10.48;6.20;;;0.40;99.90;;;;;;5071555;28;20045;-50
2020/12/16 03:10:46;;;;;;;17.02;7.22;;;0.40;99.90;;;;;;5068514;28;20044;-48
2020/12/16 03:13:13;;;;;;;14.43;8.35;;;0.50;99.90;;;;;;5066574;28;20056;-48
2020/12/16 03:15:40;;;;;;;13.88;8.10;;;0.50;99.90;;;;;;5062828;28;20055;-49
2020/12/16 03:18:06;;;;;;;12.82;7.82;;;0.70;99.90;;;;;;5074199;28;20048;-48
2020/12/16 03:20:34;;;;;;;14.60;7.00;;;0.70;99.90;;;;;;5070427;28;20052;-48
2020/12/16 03:23:00;;;;;;;14.73;8.02;;;0.70;99.90;;;;;;5068235;28;20060;-48
2020/12/16 03:25:26;;;;;;;14.13;9.02;;;0.80;99.90;;;;;;5071235;28;20056;-48
2020/12/16 03:27:53;;;;;;;15.57;8.68;;;0.80;99.90;;;;;;5073407;28;20048;-48
2020/12/16 03:30:19;;;;;;;17.38;8.82;;;0.80;99.90;;;;;;5058067;28;20052;-48
2020/12/16 03:32:46;;;;;;;12.30;7.30;;;0.90;99.90;;;;;;5067194;28;20062;-48
2020/12/16 03:35:13;;;;;;;12.77;6.63;;;0.90;99.90;;;;;;5062363;28;20048;-48
2020/12/16 03:37:40;;;;;;;15.18;7.22;;;0.90;99.90;;;;;;5072081;28;20051;-48
2020/12/16 03:40:06;;;;;;;11.93;6.10;;;1.00;99.90;;;;;;5074823;28;20044;-48
2020/12/16 03:42:35;;;;;;;12.55;7.38;;;1.00;99.90;;;;;;5069947;28;20158;-48
2020/12/16 03:45:03;;;;;;;9.70;4.90;;;1.10;99.90;;;;;;5061205;28;20056;-48
2020/12/16 03:47:30;;;;;;;10.07;4.82;;;1.10;99.90;;;;;;5071827;28;20488;-48
2020/12/16 03:49:56;;;;;;;11.85;4.55;;;1.10;99.90;;;;;;5061398;28;20055;-48
2020/12/16 03:52:23;;;;;;;6.93;5.28;;;1.20;99.90;;;;;;5062146;28;20049;-48
2020/12/16 03:54:49;;;;;;;8.85;5.95;;;1.20;99.90;;;;;;5066150;28;20102;-48
2020/12/16 03:57:15;;;;;;;11.90;7.00;;;1.20;99.90;;;;;;5073895;28;20090;-48
2020/12/16 03:59:42;;;;;;;9.98;6.97;;;1.30;99.90;;;;;;5071809;28;20049;-48
2020/12/16 04:02:09;;;;;;;10.35;6.80;;;1.30;99.90;;;;;;5072606;28;20127;-48
2020/12/16 04:04:35;;;;;;;14.40;9.07;;;1.30;99.90;;;;;;5071140;28;20416;-49
2020/12/16 04:07:02;;;;;;;14.45;8.18;;;1.20;99.90;;;;;;5071472;28;20044;-48
2020/12/16 04:09:28;;;;;;;9.80;7.18;;;1.10;99.90;;;;;;5062967;28;20048;-49
2020/12/16 04:11:55;;;;;;;12.73;6.70;;;1.10;99.90;;;;;;5064754;28;20044;-48
2020/12/16 04:14:22;;;;;;;11.30;7.10;;;1.10;99.90;;;;;;5058139;28;20049;-48
2020/12/16 04:16:48;;;;;;;11.20;7.30;;;1.00;99.90;;;;;;5067401;28;20041;-49
2020/12/16 04:19:15;;;;;;;9.27;6.15;;;1.10;99.90;;;;;;5072479;28;20062;-48
2020/12/16 04:21:42;;;;;;;5.43;3.50;;;1.10;99.90;;;;;;5068207;28;20052;-48
2020/12/16 04:24:08;;;;;;;6.93;5.45;;;1.10;99.90;;;;;;5059487;28;20052;-48
2020/12/16 04:26:35;;;;;;;13.48;6.32;;;1.10;99.90;;;;;;5073072;28;20058;-48
2020/12/16 04:29:04;;;;;;;13.32;6.90;;;1.10;99.90;;;;;;5071573;28;20060;-49
2020/12/16 04:31:31;;;;;;;13.93;6.60;;;1.00;99.90;;;;;;5057896;28;20041;-49
2020/12/16 04:33:57;;;;;;;8.13;4.53;;;1.00;99.90;;;;;;5068422;28;20052;-48
2020/12/16 04:36:24;;;;;;;8.48;5.35;;;1.00;99.90;;;;;;5062116;28;20051;-49
2020/12/16 04:38:51;;;;;;;10.60;6.53;;;1.10;99.90;;;;;;5072232;28;20393;-48
2020/12/16 04:41:18;;;;;;;10.45;5.03;;;1.10;99.90;;;;;;5071572;28;20048;-48
2020/12/16 04:43:44;;;;;;;9.45;5.60;;;1.20;99.90;;;;;;5072571;28;20102;-48
2020/12/16 04:46:17;;;;;;;9.15;5.03;;;1.20;99.90;;;;;;5070591;28;20067;-49
2020/12/16 04:48:46;;;;;;;11.20;5.88;;;1.30;99.90;;;;;;5065128;28;20053;-48
2020/12/16 04:51:17;;;;;;;12.45;4.90;;;1.30;99.90;;;;;;5069166;28;20045;-48
2020/12/16 04:53:45;;;;;;;6.85;4.68;;;1.30;99.90;;;;;;5055254;28;20070;-49
2020/12/16 04:56:13;;;;;;;7.55;5.50;;;1.40;99.90;;;;;;5070943;28;20056;-48
2020/12/16 04:58:40;;;;;;;12.43;6.53;;;1.30;99.90;;;;;;5069582;28;20059;-48
2020/12/16 05:01:08;;;;;;;9.77;5.97;;;1.30;99.90;;;;;;5066566;28;20049;-48
2020/12/16 05:03:34;;;;;;;8.45;5.22;;;1.20;99.90;;;;;;5064447;28;20064;-48
2020/12/16 05:06:01;;;;;;;8.48;5.07;;;1.20;99.90;;;;;;5072705;28;20540;-48
2020/12/16 05:08:28;;;;;;;9.02;5.68;;;1.20;99.90;;;;;;5069246;28;20056;-48
2020/12/16 05:10:55;;;;;;;10.23;4.93;;;1.10;99.90;;;;;;5054211;28;20127;-48
2020/12/16 05:13:25;;;;;;;14.77;7.20;;;1.10;99.90;;;;;;5071245;28;20041;-49
2020/12/16 05:15:51;;;;;;;15.38;8.75;;;1.10;99.90;;;;;;5070523;28;20059;-49
2020/12/16 05:18:20;;;;;;;13.77;7.30;;;1.00;99.90;;;;;;5059040;28;20048;-48
2020/12/16 05:20:51;;;;;;;11.25;6.65;;;0.90;99.90;;;;;;5063622;28;20048;-49
2020/12/16 05:23:19;;;;;;;10.00;6.13;;;0.90;99.90;;;;;;5072245;28;20056;-49
2020/12/16 05:26:02;;;;;;;13.73;6.88;;;0.90;99.90;;;;;;5069187;28;20044;-49
2020/12/16 05:28:35;;;;;;;9.40;4.45;;;0.90;99.90;;;;;;5081155;28;20056;-49
2020/12/16 05:31:08;;;;;;;7.13;4.13;;;1.00;99.90;;;;;;5061883;28;20056;-49
2020/12/16 05:33:46;;;;;;;7.70;4.85;;;1.00;99.90;;;;;;5063650;28;20048;-49
2020/12/16 05:36:12;;;;;;;6.53;3.05;;;1.00;99.90;;;;;;5059015;28;20059;-50
2020/12/16 05:38:55;;;;;;;5.70;3.65;;;1.10;99.90;;;;;;5069093;28;20044;-50
2020/12/16 05:41:28;;;;;;;5.93;4.00;;;1.20;99.90;;;;;;5067232;28;20052;-50
2020/12/16 05:44:33;;;;;;;6.05;3.55;;;1.30;99.90;;;;;;5062055;28;20053;-49
2020/12/16 05:47:09;;;;;;;8.63;5.35;;;1.40;99.90;;;;;;4990815;28;20077;-50
2020/12/16 05:49:35;;;;;;;10.35;6.13;;;1.40;99.90;;;;;;4997463;28;20058;-50
2020/12/16 05:52:05;;;;;;;10.52;5.68;;;1.40;99.90;;;;;;4993784;28;20057;-49
2020/12/16 05:54:35;;;;;;;9.98;6.30;;;1.40;99.90;;;;;;4994406;28;20130;-49
2020/12/16 05:57:25;;;;;;;12.57;5.90;;;1.50;99.90;;;;;;4999951;28;20430;-49
2020/12/16 06:00:11;;;;;;;9.38;6.00;;;1.50;99.90;;;;;;4995988;28;20137;-49
2020/12/16 06:02:43;;;;;;;10.85;5.80;;;1.50;99.90;;;;;;4998887;28;20053;-48
2020/12/16 06:05:14;;;;;;;6.57;5.13;;;1.60;99.90;;;;;;4991898;28;20042;-49
2020/12/16 06:07:48;;;;;;;5.15;3.33;;;1.60;99.90;;;;;;4992219;28;20047;-49
2020/12/16 06:10:15;;;;;;;5.13;2.42;;;1.70;99.90;;;;;;4991825;28;20712;-48
2020/12/16 06:12:43;;;;;;;4.28;2.60;;;1.70;99.90;;;;;;4990936;28;20601;-49
2020/12/16 06:15:14;;;;;;;1.95;0.90;;;1.70;99.90;;;;;;4996236;28;20388;-48
2020/12/16 06:17:46;;;;;;;2.03;1.15;;;1.70;99.90;;;;;;5028748;28;20052;-48
2020/12/16 06:20:15;;;;;;;3.80;1.85;;;1.70;99.90;;;;;;5063074;28;20040;-49
2020/12/16 06:22:44;;;;;;;3.63;2.75;;;1.80;99.90;;;;;;5075294;28;20052;-48
2020/12/16 06:25:14;;;;;;;4.50;1.85;;;1.80;99.90;;;;;;5076142;28;20392;-49
2020/12/16 06:27:44;;;;;;;5.85;2.70;;;1.80;99.90;;;;;;5058925;28;20508;-49
2020/12/16 06:30:14;;;;;;;5.78;2.83;;;1.80;99.90;;;;;;5070718;28;20055;-49
2020/12/16 06:32:46;;;;;;;14.88;7.30;;;1.80;99.90;;;;;;5075066;28;20051;-49
2020/12/16 06:35:19;;;;;;;12.15;6.90;;;1.80;99.90;;;;;;5074658;28;20045;-49
2020/12/16 06:38:06;;;;;;;18.23;7.82;;;1.80;99.90;;;;;;5072290;28;20047;-49
2020/12/16 06:40:48;;;;;;;17.15;10.75;;;1.80;99.90;;;;;;5065671;28;20048;-50
2020/12/16 06:43:41;;;;;;;22.02;13.60;;;1.70;99.90;;;;;;5071981;28;20277;-50
2020/12/16 06:46:32;;;;;;;17.10;12.13;;;1.60;99.90;;;;;;5072249;28;20048;-49
2020/12/16 06:49:01;;;;;;;14.98;9.25;;;1.50;99.90;;;;;;5074414;28;20056;-49
2020/12/16 06:51:33;;;;;;;18.65;9.95;;;1.50;99.90;;;;;;5071632;28;20123;-50
2020/12/16 06:54:08;;;;;;;12.52;7.55;;;1.50;99.90;;;;;;5068214;28;20044;-51
2020/12/16 06:56:40;;;;;;;8.40;6.68;;;1.50;99.90;;;;;;5072598;28;20040;-49
2020/12/16 06:59:07;;;;;;;9.43;5.28;;;1.50;99.90;;;;;;5073527;28;20067;-50
2020/12/16 07:01:34;;;;;;;9.85;6.68;;;1.50;99.90;;;;;;5074549;28;20048;-49
2020/12/16 07:04:01;;;;;;;13.23;7.25;;;1.60;99.90;;;;;;5069364;28;20053;-49
2020/12/16 07:06:28;;;;;;;9.23;6.70;;;1.60;99.90;;;;;;5063310;28;20049;-49
2020/12/16 07:09:17;;;;;;;11.30;6.53;;;1.60;99.90;;;;;;5071616;28;20060;-49
2020/12/16 07:11:54;;;;;;;10.70;6.47;;;1.70;99.90;;;;;;5059806;28;20036;-48
2020/12/16 07:14:25;;;;;;;7.68;4.20;;;1.80;99.90;;;;;;5063306;28;20045;-49
2020/12/16 07:17:03;;;;;;;4.20;2.95;;;1.80;99.90;;;;;;5066845;28;20045;-49
2020/12/16 07:19:30;;;;;;;3.83;2.60;;;1.90;99.90;;;;;;5057129;28;20496;-49
2020/12/16 07:21:56;;;;;;;3.20;1.83;;;2.00;99.90;;;;;;5071101;28;20049;-49
2020/12/16 07:24:24;;;;;;;3.78;2.67;;;2.00;99.90;;;;;;5072575;28;20045;-49
2020/12/16 07:26:56;;;;;;;20.13;10.65;;;2.10;99.90;;;;;;5074307;28;20044;-49
2020/12/16 07:29:28;;;;;;;18.88;9.70;;;2.20;99.90;;;;;;5072456;28;20131;-49
2020/12/16 07:32:08;;;;;;;11.90;5.38;;;2.30;99.90;;;;;;5062163;28;20060;-49
2020/12/16 07:34:46;;;;;;;4.60;3.50;;;2.30;99.90;;;;;;5071861;28;20046;-50
2020/12/16 07:37:14;;;;;;;8.38;4.55;;;2.40;99.90;;;;;;5068488;28;20466;-49
2020/12/16 07:39:59;;;;;;;17.02;9.48;;;2.50;99.90;;;;;;5073361;28;20052;-50
2020/12/16 07:42:30;;;;;;;16.67;9.38;;;2.60;99.90;;;;;;5072957;28;20055;-49
2020/12/16 07:44:59;;;;;;;20.50;11.90;;;2.60;99.90;;;;;;5071082;28;20052;-50
2020/12/16 07:47:26;;;;;;;25.05;14.43;;;2.60;99.90;;;;;;5071137;28;20045;-49
2020/12/16 07:49:54;;;;;;;38.17;21.65;;;2.60;99.90;;;;;;5073302;28;20047;-49
2020/12/16 07:52:26;;;;;;;44.53;24.55;;;2.60;99.90;;;;;;5062801;28;20048;-49
2020/12/16 07:54:53;;;;;;;48.67;28.00;;;2.60;99.90;;;;;;5069689;28;20052;-49
2020/12/16 07:57:31;;;;;;;58.03;35.25;;;2.70;99.90;;;;;;5071883;28;20048;-49
2020/12/16 07:59:58;;;;;;;45.72;26.25;;;2.70;99.90;;;;;;5073018;28;20052;-49
2020/12/16 08:02:25;;;;;;;29.00;15.48;;;2.70;99.90;;;;;;5072719;28;20076;-50
2020/12/16 08:05:03;;;;;;;22.23;10.98;;;2.80;99.90;;;;;;5070273;28;20055;-49
2020/12/16 08:07:31;;;;;;;12.73;6.93;;;2.70;99.90;;;;;;5066859;28;20049;-49
2020/12/16 08:10:06;;;;;;;17.23;8.63;;;2.70;99.90;;;;;;5070697;28;20493;-49
2020/12/16 08:12:38;;;;;;;15.75;10.25;;;2.80;99.90;;;;;;5070911;28;20041;-49
2020/12/16 08:15:08;;;;;;;14.65;8.52;;;2.90;99.90;;;;;;5059299;28;20440;-49
2020/12/16 08:17:41;;;;;;;5.72;4.15;;;3.00;99.90;;;;;;5068945;28;20063;-49
2020/12/16 08:20:20;;;;;;;6.35;2.65;;;3.00;99.90;;;;;;5061095;28;20055;-49
2020/12/16 08:22:49;;;;;;;3.42;1.67;;;3.00;99.90;;;;;;5072550;28;20056;-49
2020/12/16 08:25:18;;;;;;;4.40;1.90;;;3.10;99.90;;;;;;5071952;28;20052;-49
2020/12/16 08:27:46;;;;;;;14.10;6.85;;;3.10;99.90;;;;;;5072242;28;20055;-49
2020/12/16 08:30:17;;;;;;;54.50;31.13;;;3.20;99.90;;;;;;5071690;28;20045;-49
2020/12/16 08:32:50;;;;;;;11.32;6.13;;;3.30;99.90;;;;;;5072706;28;20041;-49
2020/12/16 08:35:20;;;;;;;4.20;3.13;;;3.30;99.90;;;;;;5071800;28;20405;-49
2020/12/16 08:37:51;;;;;;;4.18;1.42;;;3.40;99.90;;;;;;5070577;28;20045;-49
2020/12/16 08:40:18;;;;;;;13.93;7.30;;;3.50;99.90;;;;;;5072576;28;20037;-50
2020/12/16 08:42:45;;;;;;;4.50;2.30;;;3.50;99.90;;;;;;5072098;28;20048;-49
2020/12/16 08:45:12;;;;;;;8.15;4.00;;;3.60;99.90;;;;;;5063341;28;20048;-49
2020/12/16 08:47:41;;;;;;;4.63;2.72;;;3.60;99.90;;;;;;5067878;28;20489;-49
2020/12/16 08:50:17;;;;;;;5.82;3.63;;;3.60;99.90;;;;;;5055763;28;20052;-49
2020/12/16 08:52:46;;;;;;;3.08;1.83;;;3.70;99.90;;;;;;5072476;28;20461;-49
2020/12/16 08:55:16;;;;;;;9.35;4.85;;;3.70;99.90;;;;;;5065968;28;20044;-50
2020/12/16 08:57:51;;;;;;;5.35;3.20;;;3.70;99.90;;;;;;5065164;28;20394;-49
2020/12/16 09:00:18;;;;;;;17.35;10.25;;;3.80;99.90;;;;;;5065901;28;20440;-49
2020/12/16 09:03:04;;;;;;;11.73;5.55;;;3.80;99.90;;;;;;5054870;28;20075;-50
2020/12/16 09:05:33;;;;;;;6.03;2.80;;;3.80;99.90;;;;;;5066094;28;20450;-49
2020/12/16 09:08:11;;;;;;;4.30;3.20;;;3.80;99.90;;;;;;5059978;28;20488;-49
2020/12/16 09:10:45;;;;;;;11.75;5.85;;;3.90;99.90;;;;;;5059170;28;20049;-49
2020/12/16 09:13:18;;;;;;;7.82;6.75;;;4.00;99.90;;;;;;5064599;28;20051;-49
2020/12/16 09:15:50;;;;;;;6.15;4.63;;;4.10;99.90;;;;;;5071815;28;20052;-49
2020/12/16 09:18:28;;;;;;;8.07;4.15;;;4.10;99.90;;;;;;5066449;28;20048;-49
2020/12/16 09:20:56;;;;;;;2.92;1.63;;;4.20;99.90;;;;;;5066507;28;20481;-51
2020/12/16 09:23:27;;;;;;;3.60;1.70;;;4.30;99.90;;;;;;5072244;28;20048;-49
2020/12/16 09:25:56;;;;;;;5.53;2.20;;;4.30;99.90;;;;;;5070052;28;20061;-49
2020/12/16 09:28:36;;;;;;;2.53;1.60;;;4.50;99.90;;;;;;5072834;28;20668;-49
2020/12/16 09:31:17;;;;;;;9.40;5.55;;;4.60;99.90;;;;;;5070506;28;20052;-49
2020/12/16 09:34:04;;;;;;;17.73;9.82;;;4.70;99.90;;;;;;5070818;28;20401;-49
2020/12/16 09:36:31;;;;;;;42.53;18.67;;;4.80;99.90;;;;;;5069029;28;20115;-50
2020/12/16 09:39:04;;;;;;;41.92;22.80;;;4.70;99.90;;;;;;5070562;28;20051;-49
2020/12/16 09:41:46;;;;;;;38.38;21.40;;;4.70;99.90;;;;;;5072433;28;20465;-49
2020/12/16 09:44:42;;;;;;;27.90;15.65;;;4.70;99.90;;;;;;5071755;28;20488;-49
2020/12/16 09:47:20;;;;;;;25.25;14.60;;;4.80;99.90;;;;;;4982780;28;20053;-49
2020/12/16 09:50:07;;;;;;;17.60;10.90;;;4.90;99.90;;;;;;4990260;28;20054;-50
2020/12/16 09:52:35;;;;;;;13.80;9.48;;;5.00;99.90;;;;;;4990811;28;20046;-49
2020/12/16 09:55:21;;;;;;;10.10;7.82;;;5.00;99.90;;;;;;5004983;28;20042;-49
2020/12/16 09:58:17;;;;;;;6.90;5.55;;;5.10;99.90;;;;;;4989290;28;20050;-51
2020/12/16 10:00:44;;;;;;;12.57;5.80;;;5.00;99.90;;;;;;4930366;29;20059;-49
2020/12/16 10:03:13;;;;;;;10.07;5.97;;;5.00;99.90;;;;;;4948958;29;20058;-50
2020/12/16 10:05:41;;;;;;;6.35;4.13;;;5.00;99.90;;;;;;4930896;29;20052;-49
2020/12/16 10:08:14;;;;;;;6.43;2.72;;;5.10;99.90;;;;;;4932954;29;20051;-49
2020/12/16 10:10:41;;;;;;;5.38;3.67;;;5.20;99.90;;;;;;4938475;29;20075;-49
2020/12/16 10:13:08;;;;;;;1.80;1.42;;;5.30;99.90;;;;;;4931825;29;20050;-49
2020/12/16 10:15:34;;;;;;;1.70;1.20;;;5.30;99.90;;;;;;4932080;29;20056;-49
2020/12/16 10:18:01;;;;;;;4.47;1.73;;;5.40;99.90;;;;;;4930293;29;20040;-50
2020/12/16 10:20:29;;;;;;;1.67;1.40;;;5.50;99.90;;;;;;4947550;29;20473;-50
2020/12/16 10:22:56;;;;;;;1.92;1.20;;;5.60;99.90;;;;;;4946261;28;20047;-49
2020/12/16 10:25:23;;;;;;;2.00;1.60;;;5.70;99.90;;;;;;4990782;28;20506;-50
2020/12/16 10:27:49;;;;;;;2.13;1.48;;;5.80;99.90;;;;;;4999502;28;20057;-49
2020/12/16 10:30:16;;;;;;;46.65;5.15;;;5.90;99.90;;;;;;4994753;28;20042;-49
2020/12/16 10:32:43;;;;;;;14.25;2.17;;;5.90;99.90;;;;;;5003486;28;20050;-50
2020/12/16 10:35:10;;;;;;;1.77;1.42;;;6.10;99.90;;;;;;4990410;28;20484;-49
2020/12/16 10:37:40;;;;;;;2.53;2.17;;;6.20;99.90;;;;;;5046278;28;20109;-50
2020/12/16 10:40:09;;;;;;;3.08;1.50;;;6.30;99.90;;;;;;5068941;28;20066;-50
2020/12/16 10:42:36;;;;;;;32.78;2.88;;;6.40;99.90;;;;;;5069766;28;20053;-50
2020/12/16 10:45:04;;;;;;;3.45;1.42;;;6.50;99.90;;;;;;5055970;28;20048;-50
2020/12/16 10:47:31;;;;;;;3.17;1.52;;;6.70;99.90;;;;;;5069238;28;20067;-49
2020/12/16 10:49:58;;;;;;;3.50;1.83;;;7.00;99.90;;;;;;5071206;28;20052;-50
2020/12/16 10:52:25;;;;;;;1.45;1.15;;;7.10;99.90;;;;;;5068736;28;20051;-49
2020/12/16 10:54:51;;;;;;;6.40;3.78;;;7.30;99.90;;;;;;5052980;28;20478;-49
2020/12/16 10:57:20;;;;;;;13.95;8.90;;;7.30;99.90;;;;;;5069575;28;20040;-49
2020/12/16 10:59:47;;;;;;;12.93;8.65;;;7.50;99.90;;;;;;5064767;28;20060;-49
2020/12/16 11:02:15;;;;;;;13.60;7.10;;;7.80;99.90;;;;;;5063554;28;20045;-49
2020/12/16 11:04:44;;;;;;;10.80;7.13;;;7.90;99.90;;;;;;5065333;28;20045;-50
2020/12/16 11:07:10;;;;;;;9.63;7.80;;;7.80;99.90;;;;;;5074597;28;20056;-49
2020/12/16 11:09:37;;;;;;;9.07;6.50;;;7.70;99.90;;;;;;5072639;28;20052;-50
2020/12/16 11:12:04;;;;;;;11.52;7.03;;;7.60;99.90;;;;;;5072139;28;20040;-50
2020/12/16 11:14:30;;;;;;;12.63;6.05;;;7.50;99.90;;;;;;5069226;28;20397;-49
2020/12/16 11:16:57;;;;;;;7.35;5.00;;;7.50;99.90;;;;;;5071639;28;20524;-50
2020/12/16 11:19:24;;;;;;;12.32;4.05;;;7.50;99.90;;;;;;5073992;28;20052;-49
2020/12/16 11:21:52;;;;;;;5.97;2.67;;;7.50;99.90;;;;;;5073889;28;20444;-50
2020/12/16 11:24:37;;;;;;;2.60;1.63;;;7.60;99.90;;;;;;5047731;28;20680;-50
2020/12/16 11:27:04;;;;;;;6.50;1.60;;;7.60;99.90;;;;;;5060074;28;20044;-50
2020/12/16 11:29:31;;;;;;;2.80;1.83;;;7.60;99.90;;;;;;5072033;28;20072;-49
2020/12/16 11:32:01;;;;;;;3.17;1.65;;;7.80;99.90;;;;;;5072535;28;20045;-50
2020/12/16 11:34:30;;;;;;;1.20;1.10;;;7.90;99.90;;;;;;5068675;28;20068;-49
2020/12/16 11:36:58;;;;;;;3.63;1.42;;;8.10;99.90;;;;;;5071696;28;20449;-50
2020/12/16 11:39:27;;;;;;;4.45;1.63;;;8.40;99.90;;;;;;5072245;28;20546;-49
2020/12/16 11:41:55;;;;;;;2.17;1.65;;;8.70;99.90;;;;;;5070048;28;20052;-50
2020/12/16 11:44:24;;;;;;;3.75;0.90;;;8.90;99.90;;;;;;5072717;28;20055;-50
2020/12/16 11:46:51;;;;;;;1.90;1.00;;;8.80;99.90;;;;;;5072230;28;20500;-49
2020/12/16 11:49:23;;;;;;;1.40;0.82;;;8.70;99.90;;;;;;5069592;28;20463;-50
2020/12/16 11:51:50;;;;;;;1.60;1.00;;;8.90;99.90;;;;;;5055782;28;20052;-49
2020/12/16 11:54:18;;;;;;;2.90;1.00;;;8.80;99.90;;;;;;5067567;28;20037;-50
2020/12/16 11:56:45;;;;;;;2.08;1.00;;;8.60;99.90;;;;;;5058502;28;20424;-49
2020/12/16 11:59:24;;;;;;;2.55;1.05;;;8.80;99.90;;;;;;5073230;28;20044;-50
2020/12/16 12:01:59;;;;;;;1.10;1.00;;;9.10;99.90;;;;;;5072084;28;20041;-50
2020/12/16 12:04:26;;;;;;;2.88;0.90;;;9.10;99.90;;;;;;5055032;28;20052;-51
2020/12/16 12:06:53;;;;;;;1.75;1.27;;;9.10;99.90;;;;;;5071394;28;20055;-51
2020/12/16 12:09:24;;;;;;;4.45;1.00;;;9.30;99.90;;;;;;5069655;28;20049;-50
2020/12/16 12:11:52;;;;;;;2.85;0.80;;;9.60;99.90;;;;;;5071918;28;20132;-50
2020/12/16 12:14:19;;;;;;;1.50;1.00;;;9.60;99.90;;;;;;5073316;28;20040;-50
2020/12/16 12:16:50;;;;;;;5.63;2.38;;;9.70;99.90;;;;;;5073014;28;20419;-50
2020/12/16 12:19:17;;;;;;;26.20;11.55;;;9.70;99.90;;;;;;5072084;28;20681;-52
2020/12/16 12:21:43;;;;;;;2.92;1.58;;;9.80;99.90;;;;;;5073006;28;20044;-50
2020/12/16 12:24:10;;;;;;;0.88;0.70;;;9.90;99.90;;;;;;5068221;28;20045;-50
2020/12/16 12:26:37;;;;;;;3.70;1.80;;;9.80;99.90;;;;;;5070746;28;20056;-51
2020/12/16 12:29:04;;;;;;;1.77;1.55;;;10.00;99.90;;;;;;5073469;28;20052;-50
2020/12/16 12:31:31;;;;;;;1.20;1.02;;;10.00;99.90;;;;;;5070881;28;20048;-51
2020/12/16 12:33:57;;;;;;;2.25;1.00;;;10.30;99.90;;;;;;5060534;28;20045;-50
2020/12/16 12:36:25;;;;;;;1.40;0.90;;;10.40;99.90;;;;;;5070292;28;20098;-52
2020/12/16 12:38:54;;;;;;;2.03;0.60;;;10.30;99.90;;;;;;5073226;28;20041;-50
2020/12/16 12:41:21;;;;;;;1.38;0.98;;;10.20;99.90;;;;;;5071905;28;20045;-51
2020/12/16 12:43:47;;;;;;;2.15;1.20;;;10.00;99.90;;;;;;5071967;28;20492;-50
2020/12/16 12:46:14;;;;;;;1.25;1.00;;;10.20;99.90;;;;;;5063797;28;20052;-50
2020/12/16 12:48:41;;;;;;;2.63;0.88;;;10.20;99.90;;;;;;5066989;28;20053;-51
2020/12/16 12:51:10;;;;;;;1.00;0.90;;;10.20;99.90;;;;;;5072660;28;20048;-50
2020/12/16 12:53:52;;;;;;;2.80;1.35;;;10.30;99.90;;;;;;5070814;28;20052;-50
2020/12/16 12:56:19;;;;;;;2.08;0.70;;;10.40;99.90;;;;;;5069077;28;20040;-51
2020/12/16 12:58:46;;;;;;;3.53;2.70;;;10.60;99.90;;;;;;5071796;28;20044;-50
2020/12/16 13:01:13;;;;;;;1.38;0.95;;;10.60;99.90;;;;;;5072682;28;20477;-50